Time;durP1;ratioP1;P1;durP2;ratioP2;P2;SDS_P1;SDS_P2;PMS_P1;PMS_P2;Temp;Humidity;BMP_temperature;BMP_pressure;BME280_temperature;BME280_humidity;BME280_pressure;Samples;Min_cycle;Max_cycle;Signal;HPM_P1;HPM_P2
2022/11/02 00:01:27;;;;;;;1.65;0.90;;;;;;;;;;10455729;28;20206;-72
2022/11/02 00:06:28;;;;;;;2.88;0.85;;;;;;;;;;10426069;28;20290;-72
2022/11/02 00:11:29;;;;;;;2.28;0.73;;;;;;;;;;10444963;28;20211;-73
2022/11/02 00:16:31;;;;;;;1.00;0.90;;;;;;;;;;10405232;28;20226;-72
2022/11/02 00:21:32;;;;;;;0.60;0.60;;;;;;;;;;10460044;28;20195;-72
2022/11/02 00:26:35;;;;;;;0.68;0.68;;;;;;;;;;10426192;28;20211;-71
2022/11/02 00:31:36;;;;;;;0.75;0.50;;;;;;;;;;10446587;28;20666;-71
2022/11/02 00:36:39;;;;;;;1.48;0.50;;;;;;;;;;10444347;28;20229;-71
2022/11/02 00:41:41;;;;;;;1.58;0.50;;;;;;;;;;10441107;28;20215;-71
2022/11/02 00:46:43;;;;;;;0.65;0.65;;;;;;;;;;10425736;28;20209;-71
2022/11/02 00:51:45;;;;;;;2.65;0.50;;;;;;;;;;10442262;28;20643;-72
2022/11/02 00:56:48;;;;;;;0.88;0.60;;;;;;;;;;10422236;28;20226;-71
2022/11/02 01:01:50;;;;;;;0.70;0.50;;;;;;;;;;10450922;28;20910;-72
2022/11/02 01:06:51;;;;;;;2.30;0.60;;;;;;;;;;10423351;28;20214;-71
2022/11/02 01:11:53;;;;;;;4.15;0.70;;;;;;;;;;10427337;28;20333;-72
2022/11/02 01:16:56;;;;;;;0.30;0.30;;;;;;;;;;10455204;28;20227;-71
2022/11/02 01:21:57;;;;;;;2.95;0.40;;;;;;;;;;10455669;28;20686;-71
2022/11/02 01:26:59;;;;;;;1.55;0.55;;;;;;;;;;10407167;28;20220;-72
2022/11/02 01:32:00;;;;;;;1.05;0.45;;;;;;;;;;10441998;28;20211;-72
2022/11/02 01:37:01;;;;;;;0.77;0.35;;;;;;;;;;10422509;28;20232;-72
2022/11/02 01:42:02;;;;;;;2.92;0.63;;;;;;;;;;10443316;28;20229;-72
2022/11/02 01:47:24;;;;;;;4.80;0.38;;;;;;;;;;10457746;28;20214;-72
2022/11/02 01:52:30;;;;;;;2.60;0.50;;;;;;;;;;10440896;28;20242;-72
2022/11/02 01:57:33;;;;;;;4.65;0.55;;;;;;;;;;10425648;28;20260;-72
2022/11/02 02:02:35;;;;;;;1.70;0.50;;;;;;;;;;10424584;28;20218;-72
2022/11/02 02:07:39;;;;;;;3.35;0.50;;;;;;;;;;10423240;28;20671;-72
2022/11/02 02:12:41;;;;;;;0.50;0.50;;;;;;;;;;10402823;28;20242;-72
2022/11/02 02:17:42;;;;;;;3.15;0.68;;;;;;;;;;10440594;28;20219;-72
2022/11/02 02:23:10;;;;;;;3.30;0.40;;;;;;;;;;10453170;28;20213;-73
2022/11/02 02:28:29;;;;;;;2.42;0.50;;;;;;;;;;10439851;28;20246;-72
2022/11/02 02:33:35;;;;;;;2.40;1.05;;;;;;;;;;10450595;28;20210;-72
2022/11/02 02:38:46;;;;;;;4.15;0.73;;;;;;;;;;10455953;28;20211;-72
2022/11/02 02:43:49;;;;;;;2.10;0.43;;;;;;;;;;10401098;28;20679;-72
2022/11/02 02:48:52;;;;;;;3.92;0.70;;;;;;;;;;10421786;28;20215;-72
2022/11/02 02:53:57;;;;;;;2.10;0.30;;;;;;;;;;10423708;28;20206;-72
2022/11/02 02:59:02;;;;;;;1.33;0.30;;;;;;;;;;10453960;28;20226;-72
2022/11/02 03:04:03;;;;;;;3.40;0.32;;;;;;;;;;10439616;28;20704;-71
2022/11/02 03:09:28;;;;;;;2.65;0.57;;;;;;;;;;10400495;28;20688;-74
2022/11/02 03:14:34;;;;;;;3.40;0.30;;;;;;;;;;10410714;28;20272;-72
2022/11/02 03:19:50;;;;;;;1.73;0.40;;;;;;;;;;10437481;28;20230;-73
2022/11/02 03:24:59;;;;;;;3.35;0.50;;;;;;;;;;10425207;28;20514;-72
2022/11/02 03:30:09;;;;;;;5.38;0.70;;;;;;;;;;10422187;28;20273;-72
2022/11/02 03:35:22;;;;;;;4.68;0.40;;;;;;;;;;10420415;28;20328;-74
2022/11/02 03:40:25;;;;;;;2.28;0.35;;;;;;;;;;10456323;28;20311;-73
2022/11/02 03:45:30;;;;;;;2.38;0.50;;;;;;;;;;10437382;28;20226;-73
2022/11/02 03:50:34;;;;;;;2.95;0.40;;;;;;;;;;10425169;28;20693;-73
2022/11/02 03:55:37;;;;;;;2.42;0.65;;;;;;;;;;10425651;28;20929;-73
2022/11/02 04:00:45;;;;;;;1.98;0.80;;;;;;;;;;10425451;28;20240;-73
2022/11/02 04:05:46;;;;;;;4.40;0.70;;;;;;;;;;10456765;28;20289;-72
2022/11/02 04:16:21;;;;;;;4.57;0.50;;;;;;;;;;10418976;28;20226;-73
2022/11/02 04:21:22;;;;;;;3.10;0.55;;;;;;;;;;10437615;28;20280;-73
2022/11/02 04:26:23;;;;;;;2.65;0.40;;;;;;;;;;10416769;28;20218;-73
2022/11/02 04:31:24;;;;;;;3.00;1.02;;;;;;;;;;10420490;28;20561;-73
2022/11/02 04:36:29;;;;;;;2.05;0.60;;;;;;;;;;10440544;28;20211;-73
2022/11/02 04:41:40;;;;;;;4.13;0.50;;;;;;;;;;10416821;28;20215;-73
2022/11/02 04:46:52;;;;;;;2.50;0.50;;;;;;;;;;10416894;28;20211;-73
2022/11/02 04:51:57;;;;;;;1.98;0.57;;;;;;;;;;10454969;28;20524;-73
2022/11/02 04:56:59;;;;;;;4.78;0.30;;;;;;;;;;10455659;28;20222;-73
2022/11/02 05:02:02;;;;;;;4.18;0.75;;;;;;;;;;10449006;28;20211;-74
2022/11/02 05:07:06;;;;;;;4.60;0.68;;;;;;;;;;10455095;28;20210;-73
2022/11/02 05:12:10;;;;;;;2.08;0.50;;;;;;;;;;10399195;28;20721;-73
2022/11/02 05:17:13;;;;;;;2.35;0.60;;;;;;;;;;10420054;28;20230;-74
2022/11/02 05:22:14;;;;;;;0.63;0.63;;;;;;;;;;10449488;28;20233;-73
2022/11/02 05:27:16;;;;;;;2.78;0.75;;;;;;;;;;10396914;28;20581;-73
2022/11/02 05:32:21;;;;;;;1.70;0.47;;;;;;;;;;10434513;28;20211;-73
2022/11/02 05:37:22;;;;;;;2.15;0.60;;;;;;;;;;10423619;28;20222;-73
2022/11/02 05:42:24;;;;;;;2.75;0.43;;;;;;;;;;10451911;28;20216;-73
2022/11/02 05:47:26;;;;;;;2.63;0.55;;;;;;;;;;10453561;28;20218;-74
2022/11/02 05:52:27;;;;;;;3.30;0.65;;;;;;;;;;10421466;28;20218;-73
2022/11/02 05:57:28;;;;;;;3.50;0.45;;;;;;;;;;10437753;28;20675;-74
2022/11/02 06:02:29;;;;;;;3.53;1.42;;;;;;;;;;10412521;28;20679;-74
2022/11/02 06:07:31;;;;;;;3.92;0.73;;;;;;;;;;10419884;28;20210;-74
2022/11/02 06:12:32;;;;;;;2.67;0.60;;;;;;;;;;10437063;28;20293;-74
2022/11/02 06:17:37;;;;;;;1.08;0.52;;;;;;;;;;10438059;28;20278;-73
2022/11/02 06:22:40;;;;;;;5.25;0.75;;;;;;;;;;10437376;28;20210;-74
2022/11/02 06:27:41;;;;;;;2.65;0.70;;;;;;;;;;10418752;28;20647;-74
2022/11/02 06:32:48;;;;;;;3.70;0.50;;;;;;;;;;10410999;28;20218;-73
2022/11/02 06:37:49;;;;;;;3.40;0.95;;;;;;;;;;10451624;28;20632;-73
2022/11/02 06:42:55;;;;;;;1.90;0.45;;;;;;;;;;10412508;28;20210;-74
2022/11/02 06:47:56;;;;;;;2.95;0.45;;;;;;;;;;10400399;28;20281;-74
2022/11/02 06:52:57;;;;;;;3.85;0.90;;;;;;;;;;10434860;28;20219;-74
2022/11/02 06:57:58;;;;;;;1.13;0.40;;;;;;;;;;10418369;28;20222;-74
2022/11/02 07:03:04;;;;;;;3.65;0.70;;;;;;;;;;10433869;28;20214;-73
2022/11/02 07:08:05;;;;;;;3.22;0.50;;;;;;;;;;10434948;28;20211;-74
2022/11/02 07:13:06;;;;;;;1.55;0.57;;;;;;;;;;10418031;28;20275;-73
2022/11/02 07:18:07;;;;;;;8.20;0.70;;;;;;;;;;10443915;28;20222;-73
2022/11/02 07:23:09;;;;;;;1.55;0.60;;;;;;;;;;10437662;28;20272;-74
2022/11/02 07:28:10;;;;;;;0.88;0.47;;;;;;;;;;10442573;28;20234;-72
2022/11/02 07:33:11;;;;;;;0.85;0.30;;;;;;;;;;10442629;28;20309;-72
2022/11/02 07:38:12;;;;;;;6.07;1.67;;;;;;;;;;10442069;28;21027;-73
2022/11/02 07:43:14;;;;;;;1.23;0.40;;;;;;;;;;10444023;28;20214;-73
2022/11/02 07:48:38;;;;;;;3.00;0.30;;;;;;;;;;10417319;28;20222;-73
2022/11/02 07:53:39;;;;;;;3.60;0.65;;;;;;;;;;10416533;28;20220;-73
2022/11/02 07:58:41;;;;;;;3.85;0.52;;;;;;;;;;10426422;28;20337;-73
2022/11/02 08:03:42;;;;;;;1.90;0.63;;;;;;;;;;10408039;28;21013;-74
2022/11/02 08:08:43;;;;;;;1.30;0.55;;;;;;;;;;10441779;28;20207;-73
2022/11/02 08:13:44;;;;;;;2.60;0.52;;;;;;;;;;10441163;28;21269;-74
2022/11/02 08:18:46;;;;;;;2.83;0.50;;;;;;;;;;10370331;28;20219;-73
2022/11/02 08:23:47;;;;;;;2.53;0.65;;;;;;;;;;10379163;28;20626;-73
2022/11/02 08:28:48;;;;;;;5.60;0.43;;;;;;;;;;10401195;28;20755;-72
2022/11/02 08:33:49;;;;;;;2.05;0.60;;;;;;;;;;10396279;28;20243;-73
2022/11/02 08:38:50;;;;;;;6.18;0.55;;;;;;;;;;10402431;28;20972;-73
2022/11/02 08:43:51;;;;;;;3.20;0.60;;;;;;;;;;10404081;28;20606;-73
2022/11/02 08:48:52;;;;;;;3.15;0.68;;;;;;;;;;10377568;28;20266;-73
2022/11/02 08:53:54;;;;;;;5.18;0.93;;;;;;;;;;10383149;28;20269;-73
2022/11/02 08:58:55;;;;;;;2.13;0.40;;;;;;;;;;10402485;28;20231;-74
2022/11/02 09:03:56;;;;;;;6.47;1.67;;;;;;;;;;10392911;28;20200;-72
2022/11/02 09:08:57;;;;;;;3.05;0.50;;;;;;;;;;10400823;28;20748;-73
2022/11/02 09:13:58;;;;;;;5.53;0.88;;;;;;;;;;10401491;28;20273;-73
2022/11/02 09:18:59;;;;;;;0.90;0.50;;;;;;;;;;10433089;28;20230;-74
2022/11/02 09:24:00;;;;;;;1.92;0.57;;;;;;;;;;10483002;28;20563;-72
2022/11/02 09:29:02;;;;;;;1.77;0.70;;;;;;;;;;10483311;28;20275;-73
2022/11/02 09:34:03;;;;;;;2.80;1.00;;;;;;;;;;10458990;28;20213;-73
2022/11/02 09:39:04;;;;;;;2.20;0.32;;;;;;;;;;10479733;28;20659;-74
2022/11/02 09:44:09;;;;;;;5.22;0.60;;;;;;;;;;10494286;28;20241;-73
2022/11/02 09:49:18;;;;;;;4.07;0.77;;;;;;;;;;10480131;28;20220;-73
2022/11/02 09:54:25;;;;;;;3.97;0.85;;;;;;;;;;10478116;28;20217;-74
2022/11/02 09:59:27;;;;;;;0.60;0.60;;;;;;;;;;10480204;28;20325;-73
2022/11/02 10:04:46;;;;;;;4.15;0.60;;;;;;;;;;10478765;28;20244;-73
2022/11/02 10:09:47;;;;;;;2.63;0.60;;;;;;;;;;10480964;28;20226;-74
2022/11/02 10:14:48;;;;;;;4.32;0.52;;;;;;;;;;10471180;28;20249;-73
2022/11/02 10:19:53;;;;;;;6.30;0.40;;;;;;;;;;10479692;28;20233;-74
2022/11/02 10:24:56;;;;;;;6.72;0.50;;;;;;;;;;10453592;28;20255;-73
2022/11/02 10:30:02;;;;;;;2.08;0.40;;;;;;;;;;10479288;28;20219;-73
2022/11/02 10:35:06;;;;;;;2.10;0.30;;;;;;;;;;10455399;28;20389;-73
2022/11/02 10:40:25;;;;;;;0.68;0.35;;;;;;;;;;10492357;28;20263;-73
2022/11/02 10:45:50;;;;;;;5.38;0.60;;;;;;;;;;10478385;28;20766;-72
2022/11/02 10:51:00;;;;;;;2.72;0.38;;;;;;;;;;10462949;28;20202;-71
2022/11/02 10:56:05;;;;;;;3.13;0.68;;;;;;;;;;10488502;28;20214;-72
2022/11/02 11:01:07;;;;;;;3.92;0.68;;;;;;;;;;10464065;28;20251;-72
2022/11/02 11:06:09;;;;;;;3.10;0.50;;;;;;;;;;10486110;28;20263;-71
2022/11/02 11:11:13;;;;;;;2.72;0.50;;;;;;;;;;10486337;28;20250;-72
2022/11/02 11:16:15;;;;;;;4.38;0.60;;;;;;;;;;10486069;28;20301;-72
2022/11/02 11:21:16;;;;;;;4.78;0.60;;;;;;;;;;10485650;28;20712;-72
2022/11/02 11:26:30;;;;;;;2.50;0.80;;;;;;;;;;10486757;28;20290;-72
2022/11/02 11:31:31;;;;;;;0.65;0.55;;;;;;;;;;10463185;28;20233;-74
2022/11/02 11:36:34;;;;;;;1.17;0.35;;;;;;;;;;10479333;28;20239;-72
2022/11/02 11:41:39;;;;;;;1.40;0.40;;;;;;;;;;10486355;28;20214;-74
2022/11/02 11:46:50;;;;;;;0.40;0.40;;;;;;;;;;10481070;28;20688;-70
2022/11/02 11:51:53;;;;;;;1.58;0.47;;;;;;;;;;10485009;28;20320;-75
2022/11/02 11:56:55;;;;;;;2.00;0.30;;;;;;;;;;10476882;28;20202;-76
2022/11/02 12:02:00;;;;;;;3.38;0.40;;;;;;;;;;10462687;28;20260;-75
2022/11/02 12:07:24;;;;;;;0.65;0.30;;;;;;;;;;10460335;28;21242;-76
2022/11/02 12:12:31;;;;;;;2.58;0.30;;;;;;;;;;10462120;28;20758;-77
2022/11/02 12:17:42;;;;;;;0.60;0.60;;;;;;;;;;10499947;28;20225;-74
2022/11/02 12:22:46;;;;;;;1.63;0.60;;;;;;;;;;10478791;28;20367;-73
2022/11/02 12:27:53;;;;;;;4.28;0.43;;;;;;;;;;10483062;28;20213;-75
2022/11/02 12:32:54;;;;;;;2.83;0.45;;;;;;;;;;10482650;28;20222;-74
2022/11/02 12:38:08;;;;;;;0.50;0.40;;;;;;;;;;10481084;28;20290;-74
2022/11/02 12:43:18;;;;;;;2.50;0.55;;;;;;;;;;10459330;28;20210;-73
2022/11/02 12:48:34;;;;;;;2.17;0.50;;;;;;;;;;10483963;28;20218;-73
2022/11/02 12:53:56;;;;;;;3.03;0.40;;;;;;;;;;10482205;28;20263;-73
2022/11/02 12:58:58;;;;;;;1.63;0.60;;;;;;;;;;10486596;28;20221;-74
2022/11/02 13:04:09;;;;;;;1.52;0.50;;;;;;;;;;10456435;28;20279;-74
2022/11/02 13:09:18;;;;;;;0.65;0.30;;;;;;;;;;10498010;28;20214;-74
2022/11/02 13:14:20;;;;;;;1.73;0.52;;;;;;;;;;10482468;28;20215;-71
2022/11/02 13:19:25;;;;;;;1.00;0.40;;;;;;;;;;10479630;28;20232;-72
2022/11/02 13:24:29;;;;;;;2.63;0.30;;;;;;;;;;10481869;28;20697;-73
2022/11/02 13:29:30;;;;;;;1.90;0.55;;;;;;;;;;10483876;28;20228;-74
2022/11/02 13:34:34;;;;;;;0.47;0.45;;;;;;;;;;10476302;28;20218;-72
2022/11/02 13:39:37;;;;;;;1.08;0.43;;;;;;;;;;10456891;28;20215;-73
2022/11/02 13:44:45;;;;;;;4.20;0.40;;;;;;;;;;10480717;28;20317;-72
2022/11/02 13:49:50;;;;;;;0.75;0.50;;;;;;;;;;10478687;28;20731;-71
2022/11/02 13:54:54;;;;;;;1.60;0.60;;;;;;;;;;10494177;28;20244;-71
2022/11/02 13:59:55;;;;;;;0.40;0.30;;;;;;;;;;10460335;28;20961;-75
2022/11/02 14:04:56;;;;;;;3.63;0.40;;;;;;;;;;10481605;28;20225;-74
2022/11/02 14:10:01;;;;;;;1.13;0.40;;;;;;;;;;10463334;28;20225;-74
2022/11/02 14:15:12;;;;;;;0.90;0.65;;;;;;;;;;10458176;28;20214;-69
2022/11/02 14:20:31;;;;;;;0.57;0.50;;;;;;;;;;10481194;28;20256;-71
2022/11/02 14:25:46;;;;;;;0.55;0.43;;;;;;;;;;10478032;28;20252;-73
2022/11/02 14:31:06;;;;;;;3.78;0.57;;;;;;;;;;10458355;28;20206;-70
2022/11/02 14:36:16;;;;;;;0.73;0.50;;;;;;;;;;10444812;28;20206;-70
2022/11/02 14:41:36;;;;;;;0.63;0.57;;;;;;;;;;10481527;28;20202;-70
2022/11/02 14:46:41;;;;;;;1.92;0.60;;;;;;;;;;10460769;28;20206;-69
2022/11/02 14:51:43;;;;;;;2.85;0.90;;;;;;;;;;10457083;28;21012;-70
2022/11/02 14:56:47;;;;;;;2.50;0.70;;;;;;;;;;10480228;28;20598;-70
2022/11/02 15:01:51;;;;;;;0.98;0.63;;;;;;;;;;10461978;28;20240;-69
2022/11/02 15:06:54;;;;;;;1.48;0.73;;;;;;;;;;10461477;28;20233;-70
2022/11/02 15:12:00;;;;;;;0.70;0.70;;;;;;;;;;10477034;28;20353;-71
2022/11/02 15:17:02;;;;;;;2.40;0.60;;;;;;;;;;10477968;28;20225;-71
2022/11/02 15:22:30;;;;;;;3.42;0.52;;;;;;;;;;10454413;28;20213;-71
2022/11/02 15:27:33;;;;;;;1.80;0.50;;;;;;;;;;10454336;28;20214;-71
2022/11/02 15:32:38;;;;;;;1.08;0.57;;;;;;;;;;10482111;28;20241;-72
2022/11/02 15:37:39;;;;;;;4.65;0.70;;;;;;;;;;10485835;28;20268;-71
2022/11/02 15:42:46;;;;;;;2.28;0.57;;;;;;;;;;10484982;28;20214;-72
2022/11/02 15:47:56;;;;;;;1.10;0.50;;;;;;;;;;10487942;28;20218;-75
2022/11/02 15:53:16;;;;;;;4.40;1.02;;;;;;;;;;10486839;28;20264;-71
2022/11/02 15:58:27;;;;;;;3.83;0.80;;;;;;;;;;10486964;28;20214;-71
2022/11/02 16:03:28;;;;;;;1.80;0.80;;;;;;;;;;10468274;28;20233;-71
2022/11/02 16:08:34;;;;;;;6.80;0.70;;;;;;;;;;10485151;28;20234;-72
2022/11/02 16:13:35;;;;;;;1.48;0.75;;;;;;;;;;10444033;28;20221;-73
2022/11/02 16:18:37;;;;;;;3.67;0.98;;;;;;;;;;10492487;28;20604;-72
2022/11/02 16:23:49;;;;;;;1.48;0.70;;;;;;;;;;10487290;28;20217;-72
2022/11/02 16:28:58;;;;;;;1.67;0.75;;;;;;;;;;10503731;28;20233;-72
2022/11/02 16:34:15;;;;;;;1.52;1.00;;;;;;;;;;10484091;28;20848;-72
2022/11/02 16:39:18;;;;;;;1.45;0.80;;;;;;;;;;10487795;28;20213;-73
2022/11/02 16:44:21;;;;;;;1.92;1.70;;;;;;;;;;10482005;28;20637;-74
2022/11/02 16:49:23;;;;;;;2.83;2.10;;;;;;;;;;10482904;28;20210;-75
2022/11/02 16:54:29;;;;;;;4.18;1.83;;;;;;;;;;10485680;28;20233;-73
2022/11/02 16:59:30;;;;;;;2.78;2.55;;;;;;;;;;10457930;28;20720;-72
2022/11/02 17:04:32;;;;;;;4.40;2.47;;;;;;;;;;10493371;28;20720;-73
2022/11/02 17:09:33;;;;;;;4.32;2.25;;;;;;;;;;10479689;28;20347;-74
2022/11/02 17:14:34;;;;;;;1.92;1.67;;;;;;;;;;10478234;28;20248;-74
2022/11/02 17:19:38;;;;;;;3.08;2.75;;;;;;;;;;10437360;28;20633;-73
2022/11/02 17:24:39;;;;;;;4.30;3.90;;;;;;;;;;10440148;28;20802;-74
2022/11/02 17:29:41;;;;;;;6.80;3.83;;;;;;;;;;10438628;28;20207;-72
2022/11/02 17:34:52;;;;;;;3.05;2.70;;;;;;;;;;10437296;28;20222;-73
2022/11/02 17:39:53;;;;;;;4.95;2.22;;;;;;;;;;10453346;28;20590;-73
2022/11/02 17:44:56;;;;;;;4.47;2.15;;;;;;;;;;10440112;28;20223;-73
2022/11/02 17:49:57;;;;;;;2.30;2.10;;;;;;;;;;10451870;28;20218;-74
2022/11/02 17:54:58;;;;;;;2.03;1.92;;;;;;;;;;10434616;28;20804;-74
2022/11/02 17:59:59;;;;;;;2.95;1.73;;;;;;;;;;10437763;28;20277;-74
2022/11/02 18:05:00;;;;;;;1.98;1.88;;;;;;;;;;10431924;28;20591;-73
2022/11/02 18:10:02;;;;;;;2.00;1.90;;;;;;;;;;10389645;28;20212;-74
2022/11/02 18:15:03;;;;;;;3.47;2.05;;;;;;;;;;10411149;28;20239;-74
2022/11/02 18:20:04;;;;;;;3.75;2.60;;;;;;;;;;10436410;28;20216;-73
2022/11/02 18:25:06;;;;;;;4.25;2.88;;;;;;;;;;10386869;28;20167;-74
2022/11/02 18:30:10;;;;;;;2.30;2.10;;;;;;;;;;10397688;28;20593;-73
2022/11/02 18:35:12;;;;;;;2.42;2.05;;;;;;;;;;10393991;28;20646;-72
2022/11/02 18:40:15;;;;;;;2.33;2.13;;;;;;;;;;10394132;28;20217;-73
2022/11/02 18:45:16;;;;;;;2.95;2.53;;;;;;;;;;10372571;28;20227;-74
2022/11/02 18:50:17;;;;;;;3.05;2.83;;;;;;;;;;10388459;28;20770;-70
2022/11/02 18:55:18;;;;;;;2.83;2.63;;;;;;;;;;10372700;28;20297;-74
2022/11/02 19:00:20;;;;;;;2.88;2.67;;;;;;;;;;10394631;28;20246;-73
2022/11/02 19:10:42;;;;;;;3.28;2.67;;;;;;;;;;10404650;28;20215;-71
2022/11/02 19:15:43;;;;;;;2.53;2.35;;;;;;;;;;10447070;28;20247;-71
2022/11/02 19:20:44;;;;;;;4.65;2.53;;;;;;;;;;10482508;28;20214;-71
2022/11/02 19:25:49;;;;;;;6.82;2.30;;;;;;;;;;10482594;28;20309;-72
2022/11/02 19:30:50;;;;;;;3.33;2.67;;;;;;;;;;10483959;28;20492;-71
2022/11/02 19:35:54;;;;;;;3.53;3.22;;;;;;;;;;10480432;28;20283;-71
2022/11/02 19:41:03;;;;;;;4.93;3.13;;;;;;;;;;10464163;28;20326;-72
2022/11/02 19:46:05;;;;;;;5.72;3.33;;;;;;;;;;10484038;28;20206;-72
2022/11/02 19:51:11;;;;;;;3.20;2.72;;;;;;;;;;10481529;28;20218;-72
2022/11/02 19:56:13;;;;;;;3.85;3.55;;;;;;;;;;10481202;28;20218;-70
2022/11/02 20:01:15;;;;;;;6.32;2.75;;;;;;;;;;10481213;28;20214;-69
2022/11/02 20:06:18;;;;;;;5.93;2.40;;;;;;;;;;10461753;28;20267;-71
2022/11/02 20:11:20;;;;;;;3.85;3.55;;;;;;;;;;10480195;28;20214;-71
2022/11/02 20:16:21;;;;;;;4.10;3.13;;;;;;;;;;10480953;28;20230;-71
2022/11/02 20:21:26;;;;;;;3.28;3.05;;;;;;;;;;10496113;28;20870;-69
2022/11/02 20:26:32;;;;;;;2.63;2.42;;;;;;;;;;10477884;28;20214;-70
2022/11/02 20:31:36;;;;;;;3.28;2.38;;;;;;;;;;10456981;28;20305;-70
2022/11/02 20:36:38;;;;;;;3.03;2.80;;;;;;;;;;10481147;28;20351;-70
2022/11/02 20:41:39;;;;;;;2.95;2.75;;;;;;;;;;10456540;28;20221;-71
2022/11/02 20:46:40;;;;;;;3.45;3.17;;;;;;;;;;10480953;28;20686;-71
2022/11/02 20:51:41;;;;;;;2.95;2.70;;;;;;;;;;10481735;28;20210;-71
2022/11/02 20:56:43;;;;;;;2.85;2.22;;;;;;;;;;10473195;28;20218;-72
2022/11/02 21:01:44;;;;;;;3.67;2.50;;;;;;;;;;10494580;28;20214;-71
2022/11/02 21:06:45;;;;;;;2.97;2.35;;;;;;;;;;10480133;28;20267;-70
2022/11/02 21:17:07;;;;;;;6.20;2.10;;;;;;;;;;10477462;28;20226;-70
2022/11/02 21:22:08;;;;;;;2.40;1.98;;;;;;;;;;10493937;28;20229;-70
2022/11/02 21:27:09;;;;;;;1.60;1.50;;;;;;;;;;10478886;28;20214;-70
2022/11/02 21:32:10;;;;;;;2.22;1.73;;;;;;;;;;10477197;28;20218;-71
2022/11/02 21:37:11;;;;;;;2.75;2.47;;;;;;;;;;10456596;28;20209;-70
2022/11/02 21:42:12;;;;;;;4.15;2.55;;;;;;;;;;10492221;28;20226;-73
2022/11/02 21:47:14;;;;;;;2.42;2.30;;;;;;;;;;10457929;28;20689;-72
2022/11/02 21:52:15;;;;;;;1.70;1.70;;;;;;;;;;10498912;28;20301;-72
2022/11/02 21:57:16;;;;;;;1.60;1.55;;;;;;;;;;10465313;28;20215;-73
2022/11/02 22:02:17;;;;;;;1.40;1.40;;;;;;;;;;10459117;28;20700;-73
2022/11/02 22:07:22;;;;;;;1.27;1.13;;;;;;;;;;10442617;28;20589;-73
2022/11/02 22:17:43;;;;;;;3.78;2.50;;;;;;;;;;10430859;28;20227;-73
2022/11/02 22:22:44;;;;;;;4.85;1.85;;;;;;;;;;10396112;28;20203;-73
2022/11/02 22:27:45;;;;;;;1.92;1.83;;;;;;;;;;10380347;28;20914;-72
2022/11/02 22:32:46;;;;;;;5.97;1.20;;;;;;;;;;10419330;28;20585;-73
2022/11/02 22:43:07;;;;;;;3.67;1.50;;;;;;;;;;10436461;28;20206;-72
2022/11/02 22:48:09;;;;;;;1.02;1.02;;;;;;;;;;10412956;28;20207;-73
2022/11/02 22:53:10;;;;;;;3.30;1.42;;;;;;;;;;10396418;28;20694;-73
2022/11/02 22:58:11;;;;;;;2.72;2.47;;;;;;;;;;10424293;28;20860;-72
2022/11/02 23:03:12;;;;;;;3.20;1.58;;;;;;;;;;10438045;28;20211;-73
2022/11/02 23:08:13;;;;;;;3.85;1.45;;;;;;;;;;10414682;28;20309;-73
2022/11/02 23:13:14;;;;;;;5.43;1.27;;;;;;;;;;10442188;28;20271;-72
2022/11/02 23:18:15;;;;;;;2.70;1.48;;;;;;;;;;10470269;28;20275;-73
2022/11/02 23:33:56;;;;;;;1.65;1.33;;;;;;;;;;10465373;28;20297;-72
2022/11/02 23:44:17;;;;;;;1.75;1.35;;;;;;;;;;10481477;28;20221;-72
2022/11/02 23:49:19;;;;;;;2.40;1.10;;;;;;;;;;10462349;28;20289;-72
2022/11/02 23:59:40;;;;;;;1.35;1.05;;;;;;;;;;10474447;28;20209;-72
